sensor_id;sensor_type;location;lat;lon;timestamp;temperature;humidity
69208;SHT31;70114;47.690;8.898;2024-03-02T00:01:05;5.63;89.93
69208;SHT31;70114;47.690;8.898;2024-03-02T00:03:31;5.69;88.54
69208;SHT31;70114;47.690;8.898;2024-03-02T00:05:56;5.59;88.61
69208;SHT31;70114;47.690;8.898;2024-03-02T00:08:25;5.73;88.08
69208;SHT31;70114;47.690;8.898;2024-03-02T00:10:51;5.80;87.83
69208;SHT31;70114;47.690;8.898;2024-03-02T00:13:20;5.83;87.55
69208;SHT31;70114;47.690;8.898;2024-03-02T00:15:51;5.86;87.78
69208;SHT31;70114;47.690;8.898;2024-03-02T00:18:24;5.89;87.19
69208;SHT31;70114;47.690;8.898;2024-03-02T00:20:53;5.87;87.41
69208;SHT31;70114;47.690;8.898;2024-03-02T00:23:20;5.87;87.66
69208;SHT31;70114;47.690;8.898;2024-03-02T00:25:48;5.92;87.29
69208;SHT31;70114;47.690;8.898;2024-03-02T00:31:07;5.93;86.60
69208;SHT31;70114;47.690;8.898;2024-03-02T00:36:09;5.82;87.57
69208;SHT31;70114;47.690;8.898;2024-03-02T00:38:47;5.79;87.54
69208;SHT31;70114;47.690;8.898;2024-03-02T00:41:29;5.75;87.38
69208;SHT31;70114;47.690;8.898;2024-03-02T00:44:01;5.73;88.45
69208;SHT31;70114;47.690;8.898;2024-03-02T00:46:30;5.75;87.82
69208;SHT31;70114;47.690;8.898;2024-03-02T00:48:59;5.77;87.22
69208;SHT31;70114;47.690;8.898;2024-03-02T00:51:27;5.76;86.68
69208;SHT31;70114;47.690;8.898;2024-03-02T00:53:54;5.63;87.59
69208;SHT31;70114;47.690;8.898;2024-03-02T00:56:25;5.59;87.98
69208;SHT31;70114;47.690;8.898;2024-03-02T00:58:51;5.59;88.22
69208;SHT31;70114;47.690;8.898;2024-03-02T01:01:17;5.55;87.61
69208;SHT31;70114;47.690;8.898;2024-03-02T01:03:45;5.54;87.82
69208;SHT31;70114;47.690;8.898;2024-03-02T01:06:10;5.62;87.51
69208;SHT31;70114;47.690;8.898;2024-03-02T01:08:36;5.60;86.95
69208;SHT31;70114;47.690;8.898;2024-03-02T01:11:02;5.56;87.09
69208;SHT31;70114;47.690;8.898;2024-03-02T01:13:28;5.59;86.50
69208;SHT31;70114;47.690;8.898;2024-03-02T01:15:53;5.63;86.57
69208;SHT31;70114;47.690;8.898;2024-03-02T01:18:18;5.59;86.65
69208;SHT31;70114;47.690;8.898;2024-03-02T01:20:44;5.63;86.46
69208;SHT31;70114;47.690;8.898;2024-03-02T01:23:09;5.60;86.07
69208;SHT31;70114;47.690;8.898;2024-03-02T01:25:35;5.60;86.18
69208;SHT31;70114;47.690;8.898;2024-03-02T01:28:01;5.60;86.16
69208;SHT31;70114;47.690;8.898;2024-03-02T01:30:26;5.66;85.92
69208;SHT31;70114;47.690;8.898;2024-03-02T01:32:52;5.60;85.65
69208;SHT31;70114;47.690;8.898;2024-03-02T01:35:17;5.55;86.73
69208;SHT31;70114;47.690;8.898;2024-03-02T01:37:42;5.51;86.59
69208;SHT31;70114;47.690;8.898;2024-03-02T01:40:08;5.54;86.46
69208;SHT31;70114;47.690;8.898;2024-03-02T01:42:37;5.59;85.79
69208;SHT31;70114;47.690;8.898;2024-03-02T01:45:06;5.48;86.13
69208;SHT31;70114;47.690;8.898;2024-03-02T01:47:32;5.54;86.28
69208;SHT31;70114;47.690;8.898;2024-03-02T01:49:58;5.51;86.00
69208;SHT31;70114;47.690;8.898;2024-03-02T01:52:24;5.55;85.21
69208;SHT31;70114;47.690;8.898;2024-03-02T01:54:49;5.47;85.19
69208;SHT31;70114;47.690;8.898;2024-03-02T01:57:15;5.47;85.55
69208;SHT31;70114;47.690;8.898;2024-03-02T01:59:41;5.44;85.76
69208;SHT31;70114;47.690;8.898;2024-03-02T02:02:06;5.38;86.03
69208;SHT31;70114;47.690;8.898;2024-03-02T02:04:32;5.38;85.69
69208;SHT31;70114;47.690;8.898;2024-03-02T02:06:58;5.32;85.82
69208;SHT31;70114;47.690;8.898;2024-03-02T02:09:24;5.37;85.53
69208;SHT31;70114;47.690;8.898;2024-03-02T02:11:50;5.35;85.74
69208;SHT31;70114;47.690;8.898;2024-03-02T02:14:16;5.34;85.75
69208;SHT31;70114;47.690;8.898;2024-03-02T02:16:41;5.38;86.23
69208;SHT31;70114;47.690;8.898;2024-03-02T02:19:06;5.30;86.10
69208;SHT31;70114;47.690;8.898;2024-03-02T02:21:32;5.28;86.48
69208;SHT31;70114;47.690;8.898;2024-03-02T02:23:57;5.14;86.30
69208;SHT31;70114;47.690;8.898;2024-03-02T02:26:22;5.10;86.69
69208;SHT31;70114;47.690;8.898;2024-03-02T02:28:48;5.08;87.04
69208;SHT31;70114;47.690;8.898;2024-03-02T02:31:13;5.08;86.41
69208;SHT31;70114;47.690;8.898;2024-03-02T02:33:42;5.10;86.30
69208;SHT31;70114;47.690;8.898;2024-03-02T02:36:08;5.07;85.86
69208;SHT31;70114;47.690;8.898;2024-03-02T02:38:38;4.99;86.42
69208;SHT31;70114;47.690;8.898;2024-03-02T02:41:04;5.01;86.21
69208;SHT31;70114;47.690;8.898;2024-03-02T02:43:30;5.06;85.77
69208;SHT31;70114;47.690;8.898;2024-03-02T02:45:55;5.07;85.37
69208;SHT31;70114;47.690;8.898;2024-03-02T02:48:20;4.96;85.94
69208;SHT31;70114;47.690;8.898;2024-03-02T02:50:47;5.04;85.61
69208;SHT31;70114;47.690;8.898;2024-03-02T02:53:13;5.06;85.63
69208;SHT31;70114;47.690;8.898;2024-03-02T02:55:39;5.03;86.19
69208;SHT31;70114;47.690;8.898;2024-03-02T02:58:08;5.03;86.05
69208;SHT31;70114;47.690;8.898;2024-03-02T03:00:34;4.84;87.06
69208;SHT31;70114;47.690;8.898;2024-03-02T03:02:59;4.89;86.84
69208;SHT31;70114;47.690;8.898;2024-03-02T03:05:24;4.94;86.60
69208;SHT31;70114;47.690;8.898;2024-03-02T03:07:50;4.99;86.32
69208;SHT31;70114;47.690;8.898;2024-03-02T03:10:16;5.00;85.77
69208;SHT31;70114;47.690;8.898;2024-03-02T03:12:42;4.93;86.24
69208;SHT31;70114;47.690;8.898;2024-03-02T03:15:09;4.94;86.19
69208;SHT31;70114;47.690;8.898;2024-03-02T03:17:35;4.93;86.12
69208;SHT31;70114;47.690;8.898;2024-03-02T03:20:01;4.94;86.09
69208;SHT31;70114;47.690;8.898;2024-03-02T03:22:26;4.97;86.56
69208;SHT31;70114;47.690;8.898;2024-03-02T03:24:52;4.96;86.32
69208;SHT31;70114;47.690;8.898;2024-03-02T03:27:18;4.97;86.82
69208;SHT31;70114;47.690;8.898;2024-03-02T03:29:45;4.90;86.76
69208;SHT31;70114;47.690;8.898;2024-03-02T03:32:10;4.89;87.36
69208;SHT31;70114;47.690;8.898;2024-03-02T03:34:35;4.79;87.21
69208;SHT31;70114;47.690;8.898;2024-03-02T03:37:02;4.87;86.67
69208;SHT31;70114;47.690;8.898;2024-03-02T03:39:27;4.87;87.17
69208;SHT31;70114;47.690;8.898;2024-03-02T03:41:53;4.83;86.42
69208;SHT31;70114;47.690;8.898;2024-03-02T03:44:19;4.93;85.87
69208;SHT31;70114;47.690;8.898;2024-03-02T03:46:44;4.91;86.05
69208;SHT31;70114;47.690;8.898;2024-03-02T03:49:10;4.86;86.73
69208;SHT31;70114;47.690;8.898;2024-03-02T03:51:35;4.80;87.12
69208;SHT31;70114;47.690;8.898;2024-03-02T03:54:01;4.72;87.19
69208;SHT31;70114;47.690;8.898;2024-03-02T03:56:26;4.84;86.59
69208;SHT31;70114;47.690;8.898;2024-03-02T03:58:52;4.87;86.59
69208;SHT31;70114;47.690;8.898;2024-03-02T04:01:17;4.77;86.89
69208;SHT31;70114;47.690;8.898;2024-03-02T04:03:43;4.84;86.93
69208;SHT31;70114;47.690;8.898;2024-03-02T04:06:08;4.84;86.75
69208;SHT31;70114;47.690;8.898;2024-03-02T04:08:34;4.86;86.07
69208;SHT31;70114;47.690;8.898;2024-03-02T04:10:59;4.68;86.83
69208;SHT31;70114;47.690;8.898;2024-03-02T04:13:24;4.75;86.77
69208;SHT31;70114;47.690;8.898;2024-03-02T04:15:50;4.73;87.06
69208;SHT31;70114;47.690;8.898;2024-03-02T04:18:15;4.80;86.66
69208;SHT31;70114;47.690;8.898;2024-03-02T04:20:41;4.75;86.89
69208;SHT31;70114;47.690;8.898;2024-03-02T04:23:06;4.69;86.46
69208;SHT31;70114;47.690;8.898;2024-03-02T04:25:33;4.72;86.43
69208;SHT31;70114;47.690;8.898;2024-03-02T04:27:58;4.58;87.57
69208;SHT31;70114;47.690;8.898;2024-03-02T04:30:23;4.69;87.40
69208;SHT31;70114;47.690;8.898;2024-03-02T04:32:50;4.68;86.99
69208;SHT31;70114;47.690;8.898;2024-03-02T04:35:16;4.69;86.72
69208;SHT31;70114;47.690;8.898;2024-03-02T04:37:41;4.75;85.88
69208;SHT31;70114;47.690;8.898;2024-03-02T04:40:07;4.66;86.26
69208;SHT31;70114;47.690;8.898;2024-03-02T04:42:35;4.72;86.90
69208;SHT31;70114;47.690;8.898;2024-03-02T04:45:01;4.68;86.32
69208;SHT31;70114;47.690;8.898;2024-03-02T04:47:27;4.72;86.25
69208;SHT31;70114;47.690;8.898;2024-03-02T04:49:52;4.73;86.10
69208;SHT31;70114;47.690;8.898;2024-03-02T04:52:18;4.70;87.09
69208;SHT31;70114;47.690;8.898;2024-03-02T04:54:43;4.70;86.31
69208;SHT31;70114;47.690;8.898;2024-03-02T04:57:27;4.73;86.15
69208;SHT31;70114;47.690;8.898;2024-03-02T04:59:53;4.72;86.46
69208;SHT31;70114;47.690;8.898;2024-03-02T05:02:18;4.69;86.84
69208;SHT31;70114;47.690;8.898;2024-03-02T05:04:43;4.69;87.34
69208;SHT31;70114;47.690;8.898;2024-03-02T05:07:09;4.75;86.69
69208;SHT31;70114;47.690;8.898;2024-03-02T05:09:34;4.53;86.89
69208;SHT31;70114;47.690;8.898;2024-03-02T05:12:00;4.62;87.48
69208;SHT31;70114;47.690;8.898;2024-03-02T05:15:00;4.63;86.47
69208;SHT31;70114;47.690;8.898;2024-03-02T05:17:25;4.59;86.42
69208;SHT31;70114;47.690;8.898;2024-03-02T05:19:51;4.59;86.25
69208;SHT31;70114;47.690;8.898;2024-03-02T05:22:16;4.46;86.76
69208;SHT31;70114;47.690;8.898;2024-03-02T05:24:41;4.27;87.54
69208;SHT31;70114;47.690;8.898;2024-03-02T05:27:07;4.38;87.93
69208;SHT31;70114;47.690;8.898;2024-03-02T05:29:32;4.38;87.01
69208;SHT31;70114;47.690;8.898;2024-03-02T05:31:58;4.41;86.47
69208;SHT31;70114;47.690;8.898;2024-03-02T05:34:23;4.46;86.27
69208;SHT31;70114;47.690;8.898;2024-03-02T05:36:48;4.45;86.17
69208;SHT31;70114;47.690;8.898;2024-03-02T05:39:14;4.38;87.11
69208;SHT31;70114;47.690;8.898;2024-03-02T05:41:39;4.38;86.97
69208;SHT31;70114;47.690;8.898;2024-03-02T05:44:05;4.24;88.09
69208;SHT31;70114;47.690;8.898;2024-03-02T05:46:30;4.31;87.81
69208;SHT31;70114;47.690;8.898;2024-03-02T05:48:55;4.35;87.58
69208;SHT31;70114;47.690;8.898;2024-03-02T05:51:21;4.22;87.46
69208;SHT31;70114;47.690;8.898;2024-03-02T05:53:46;4.35;86.65
69208;SHT31;70114;47.690;8.898;2024-03-02T05:56:12;4.25;86.97
69208;SHT31;70114;47.690;8.898;2024-03-02T05:58:37;4.25;87.55
69208;SHT31;70114;47.690;8.898;2024-03-02T06:01:15;4.22;88.17
69208;SHT31;70114;47.690;8.898;2024-03-02T06:03:40;4.18;87.78
69208;SHT31;70114;47.690;8.898;2024-03-02T06:06:05;4.27;87.34
69208;SHT31;70114;47.690;8.898;2024-03-02T06:08:31;4.24;86.54
69208;SHT31;70114;47.690;8.898;2024-03-02T06:10:56;4.10;87.50
69208;SHT31;70114;47.690;8.898;2024-03-02T06:13:22;4.22;87.14
69208;SHT31;70114;47.690;8.898;2024-03-02T06:15:48;4.25;87.48
69208;SHT31;70114;47.690;8.898;2024-03-02T06:18:13;4.27;86.65
69208;SHT31;70114;47.690;8.898;2024-03-02T06:20:38;4.18;85.75
69208;SHT31;70114;47.690;8.898;2024-03-02T06:23:04;4.27;85.98
69208;SHT31;70114;47.690;8.898;2024-03-02T06:25:29;4.24;85.91
69208;SHT31;70114;47.690;8.898;2024-03-02T06:27:55;4.22;85.86
69208;SHT31;70114;47.690;8.898;2024-03-02T06:30:20;4.03;86.66
69208;SHT31;70114;47.690;8.898;2024-03-02T06:32:45;4.13;87.33
69208;SHT31;70114;47.690;8.898;2024-03-02T06:35:11;4.14;86.79
69208;SHT31;70114;47.690;8.898;2024-03-02T06:37:38;4.13;86.44
69208;SHT31;70114;47.690;8.898;2024-03-02T06:40:06;4.18;86.26
69208;SHT31;70114;47.690;8.898;2024-03-02T06:42:33;4.21;85.63
69208;SHT31;70114;47.690;8.898;2024-03-02T06:44:59;4.18;85.45
69208;SHT31;70114;47.690;8.898;2024-03-02T06:47:24;4.25;85.92
69208;SHT31;70114;47.690;8.898;2024-03-02T06:49:49;4.25;85.77
69208;SHT31;70114;47.690;8.898;2024-03-02T06:52:16;4.21;85.78
69208;SHT31;70114;47.690;8.898;2024-03-02T06:54:41;4.10;86.35
69208;SHT31;70114;47.690;8.898;2024-03-02T06:57:06;4.17;85.60
69208;SHT31;70114;47.690;8.898;2024-03-02T06:59:32;4.24;86.59
69208;SHT31;70114;47.690;8.898;2024-03-02T07:01:58;4.24;87.60
69208;SHT31;70114;47.690;8.898;2024-03-02T07:04:24;4.24;87.44
69208;SHT31;70114;47.690;8.898;2024-03-02T07:06:49;4.28;87.55
69208;SHT31;70114;47.690;8.898;2024-03-02T07:09:14;4.24;87.44
69208;SHT31;70114;47.690;8.898;2024-03-02T07:11:40;4.10;87.50
69208;SHT31;70114;47.690;8.898;2024-03-02T07:14:05;4.21;87.56
69208;SHT31;70114;47.690;8.898;2024-03-02T07:16:31;4.24;87.61
69208;SHT31;70114;47.690;8.898;2024-03-02T07:18:58;4.31;87.25
69208;SHT31;70114;47.690;8.898;2024-03-02T07:21:24;4.35;86.85
69208;SHT31;70114;47.690;8.898;2024-03-02T07:23:50;4.37;86.52
69208;SHT31;70114;47.690;8.898;2024-03-02T07:26:16;4.48;86.30
69208;SHT31;70114;47.690;8.898;2024-03-02T07:28:43;4.58;86.14
69208;SHT31;70114;47.690;8.898;2024-03-02T07:31:09;4.72;85.91
69208;SHT31;70114;47.690;8.898;2024-03-02T07:33:35;4.68;86.95
69208;SHT31;70114;47.690;8.898;2024-03-02T07:36:00;4.81;86.42
69208;SHT31;70114;47.690;8.898;2024-03-02T07:38:28;4.83;86.31
69208;SHT31;70114;47.690;8.898;2024-03-02T07:40:54;4.90;86.44
69208;SHT31;70114;47.690;8.898;2024-03-02T07:43:20;4.96;87.17
69208;SHT31;70114;47.690;8.898;2024-03-02T07:45:46;5.03;87.37
69208;SHT31;70114;47.690;8.898;2024-03-02T07:48:12;5.14;87.73
69208;SHT31;70114;47.690;8.898;2024-03-02T07:50:37;5.20;87.57
69208;SHT31;70114;47.690;8.898;2024-03-02T07:53:04;5.32;87.01
69208;SHT31;70114;47.690;8.898;2024-03-02T07:55:30;5.45;87.01
69208;SHT31;70114;47.690;8.898;2024-03-02T07:57:56;5.56;87.12
69208;SHT31;70114;47.690;8.898;2024-03-02T08:00:22;5.70;87.04
69208;SHT31;70114;47.690;8.898;2024-03-02T08:02:48;5.85;87.51
69208;SHT31;70114;47.690;8.898;2024-03-02T08:05:14;6.04;87.31
69208;SHT31;70114;47.690;8.898;2024-03-02T08:07:40;6.17;87.41
69208;SHT31;70114;47.690;8.898;2024-03-02T08:10:06;6.37;88.34
69208;SHT31;70114;47.690;8.898;2024-03-02T08:12:32;6.45;89.46
69208;SHT31;70114;47.690;8.898;2024-03-02T08:14:57;6.33;89.39
69208;SHT31;70114;47.690;8.898;2024-03-02T08:17:23;6.58;88.33
69208;SHT31;70114;47.690;8.898;2024-03-02T08:19:48;6.75;88.06
69208;SHT31;70114;47.690;8.898;2024-03-02T08:22:15;6.88;88.23
69208;SHT31;70114;47.690;8.898;2024-03-02T08:24:40;6.83;88.64
69208;SHT31;70114;47.690;8.898;2024-03-02T08:27:06;6.42;87.86
69208;SHT31;70114;47.690;8.898;2024-03-02T08:29:31;6.73;87.37
69208;SHT31;70114;47.690;8.898;2024-03-02T08:31:57;6.78;87.99
69208;SHT31;70114;47.690;8.898;2024-03-02T08:34:22;6.59;88.48
69208;SHT31;70114;47.690;8.898;2024-03-02T08:36:48;6.69;87.99
69208;SHT31;70114;47.690;8.898;2024-03-02T08:39:14;6.93;88.00
69208;SHT31;70114;47.690;8.898;2024-03-02T08:41:49;7.03;87.87
69208;SHT31;70114;47.690;8.898;2024-03-02T08:44:15;7.07;86.79
69208;SHT31;70114;47.690;8.898;2024-03-02T08:46:40;7.19;87.57
69208;SHT31;70114;47.690;8.898;2024-03-02T08:49:06;7.00;88.91
69208;SHT31;70114;47.690;8.898;2024-03-02T08:51:32;6.79;89.10
69208;SHT31;70114;47.690;8.898;2024-03-02T08:53:58;6.95;89.92
69208;SHT31;70114;47.690;8.898;2024-03-02T08:56:24;6.78;90.14
69208;SHT31;70114;47.690;8.898;2024-03-02T08:58:52;6.46;91.89
69208;SHT31;70114;47.690;8.898;2024-03-02T09:01:18;6.35;91.11
69208;SHT31;70114;47.690;8.898;2024-03-02T09:03:45;6.07;91.78
69208;SHT31;70114;47.690;8.898;2024-03-02T09:06:11;5.85;92.07
69208;SHT31;70114;47.690;8.898;2024-03-02T09:08:36;5.87;92.23
69208;SHT31;70114;47.690;8.898;2024-03-02T09:11:04;5.72;93.24
69208;SHT31;70114;47.690;8.898;2024-03-02T09:13:30;5.92;94.11
69208;SHT31;70114;47.690;8.898;2024-03-02T09:15:56;5.79;93.73
69208;SHT31;70114;47.690;8.898;2024-03-02T09:18:21;5.87;93.42
69208;SHT31;70114;47.690;8.898;2024-03-02T09:20:47;6.18;93.01
69208;SHT31;70114;47.690;8.898;2024-03-02T09:23:12;6.49;92.37
69208;SHT31;70114;47.690;8.898;2024-03-02T09:25:38;6.27;91.95
69208;SHT31;70114;47.690;8.898;2024-03-02T09:28:03;6.14;93.91
69208;SHT31;70114;47.690;8.898;2024-03-02T09:30:29;6.16;93.20
69208;SHT31;70114;47.690;8.898;2024-03-02T09:32:54;6.42;92.54
69208;SHT31;70114;47.690;8.898;2024-03-02T09:35:19;6.40;92.06
69208;SHT31;70114;47.690;8.898;2024-03-02T09:37:45;6.46;91.92
69208;SHT31;70114;47.690;8.898;2024-03-02T09:40:11;6.75;91.88
69208;SHT31;70114;47.690;8.898;2024-03-02T09:42:37;7.03;91.34
69208;SHT31;70114;47.690;8.898;2024-03-02T09:45:02;6.96;91.20
69208;SHT31;70114;47.690;8.898;2024-03-02T09:47:28;6.88;90.04
69208;SHT31;70114;47.690;8.898;2024-03-02T09:49:54;6.64;91.22
69208;SHT31;70114;47.690;8.898;2024-03-02T09:52:22;6.67;91.00
69208;SHT31;70114;47.690;8.898;2024-03-02T09:54:47;6.69;92.42
69208;SHT31;70114;47.690;8.898;2024-03-02T09:57:13;6.72;91.77
69208;SHT31;70114;47.690;8.898;2024-03-02T09:59:38;6.76;91.45
69208;SHT31;70114;47.690;8.898;2024-03-02T10:02:04;6.61;91.09
69208;SHT31;70114;47.690;8.898;2024-03-02T10:04:32;6.73;92.16
69208;SHT31;70114;47.690;8.898;2024-03-02T10:07:13;6.92;91.29
69208;SHT31;70114;47.690;8.898;2024-03-02T10:09:40;6.88;90.89
69208;SHT31;70114;47.690;8.898;2024-03-02T10:12:08;7.14;90.76
69208;SHT31;70114;47.690;8.898;2024-03-02T10:14:34;7.44;90.42
69208;SHT31;70114;47.690;8.898;2024-03-02T10:17:03;7.21;89.11
69208;SHT31;70114;47.690;8.898;2024-03-02T10:19:29;7.17;90.13
69208;SHT31;70114;47.690;8.898;2024-03-02T10:21:59;7.54;90.12
69208;SHT31;70114;47.690;8.898;2024-03-02T10:24:25;7.72;88.65
69208;SHT31;70114;47.690;8.898;2024-03-02T10:26:51;8.22;86.81
69208;SHT31;70114;47.690;8.898;2024-03-02T10:29:17;8.44;85.27
69208;SHT31;70114;47.690;8.898;2024-03-02T10:31:44;8.75;84.06
69208;SHT31;70114;47.690;8.898;2024-03-02T10:34:12;8.91;83.44
69208;SHT31;70114;47.690;8.898;2024-03-02T10:36:41;9.18;82.58
69208;SHT31;70114;47.690;8.898;2024-03-02T10:39:07;9.33;81.36
69208;SHT31;70114;47.690;8.898;2024-03-02T10:41:34;9.58;81.25
69208;SHT31;70114;47.690;8.898;2024-03-02T10:44:03;9.65;79.98
69208;SHT31;70114;47.690;8.898;2024-03-02T10:46:30;9.78;79.23
69208;SHT31;70114;47.690;8.898;2024-03-02T10:48:57;9.78;79.89
69208;SHT31;70114;47.690;8.898;2024-03-02T10:51:26;9.89;77.09
69208;SHT31;70114;47.690;8.898;2024-03-02T10:53:54;10.05;76.87
69208;SHT31;70114;47.690;8.898;2024-03-02T10:56:28;10.20;75.26
69208;SHT31;70114;47.690;8.898;2024-03-02T10:59:21;10.22;75.80
69208;SHT31;70114;47.690;8.898;2024-03-02T11:01:50;10.26;76.76
69208;SHT31;70114;47.690;8.898;2024-03-02T11:04:18;10.49;76.11
69208;SHT31;70114;47.690;8.898;2024-03-02T11:06:48;10.18;71.30
69208;SHT31;70114;47.690;8.898;2024-03-02T11:09:14;10.43;73.90
69208;SHT31;70114;47.690;8.898;2024-03-02T11:11:43;10.57;70.04
69208;SHT31;70114;47.690;8.898;2024-03-02T11:14:17;10.74;71.01
69208;SHT31;70114;47.690;8.898;2024-03-02T11:16:46;10.85;70.93
69208;SHT31;70114;47.690;8.898;2024-03-02T11:19:13;11.01;70.62
69208;SHT31;70114;47.690;8.898;2024-03-02T11:21:38;11.07;70.28
69208;SHT31;70114;47.690;8.898;2024-03-02T11:26:52;11.10;69.56
69208;SHT31;70114;47.690;8.898;2024-03-02T11:32:02;11.15;68.70
69208;SHT31;70114;47.690;8.898;2024-03-02T11:34:29;11.26;68.31
69208;SHT31;70114;47.690;8.898;2024-03-02T11:36:55;11.50;67.47
69208;SHT31;70114;47.690;8.898;2024-03-02T11:39:20;11.52;66.96
69208;SHT31;70114;47.690;8.898;2024-03-02T11:41:46;11.56;67.10
69208;SHT31;70114;47.690;8.898;2024-03-02T11:44:11;11.50;65.28
69208;SHT31;70114;47.690;8.898;2024-03-02T11:46:39;11.19;66.05
69208;SHT31;70114;47.690;8.898;2024-03-02T11:49:05;11.07;64.95
69208;SHT31;70114;47.690;8.898;2024-03-02T11:51:35;11.00;66.06
69208;SHT31;70114;47.690;8.898;2024-03-02T11:54:00;10.78;66.38
69208;SHT31;70114;47.690;8.898;2024-03-02T11:56:28;11.25;69.01
69208;SHT31;70114;47.690;8.898;2024-03-02T11:58:56;11.10;66.81
69208;SHT31;70114;47.690;8.898;2024-03-02T12:01:22;11.10;66.50
69208;SHT31;70114;47.690;8.898;2024-03-02T12:03:48;11.36;67.32
69208;SHT31;70114;47.690;8.898;2024-03-02T12:06:14;11.49;66.89
69208;SHT31;70114;47.690;8.898;2024-03-02T12:08:40;11.43;66.78
69208;SHT31;70114;47.690;8.898;2024-03-02T12:11:05;11.47;67.03
69208;SHT31;70114;47.690;8.898;2024-03-02T12:13:31;11.33;65.39
69208;SHT31;70114;47.690;8.898;2024-03-02T12:15:58;11.71;68.13
69208;SHT31;70114;47.690;8.898;2024-03-02T12:18:24;11.84;66.24
69208;SHT31;70114;47.690;8.898;2024-03-02T12:20:50;12.10;67.82
69208;SHT31;70114;47.690;8.898;2024-03-02T12:23:18;12.31;66.86
69208;SHT31;70114;47.690;8.898;2024-03-02T12:25:43;12.46;67.56
69208;SHT31;70114;47.690;8.898;2024-03-02T12:28:09;12.17;65.50
69208;SHT31;70114;47.690;8.898;2024-03-02T12:30:35;12.49;66.68
69208;SHT31;70114;47.690;8.898;2024-03-02T12:33:01;12.16;66.08
69208;SHT31;70114;47.690;8.898;2024-03-02T12:35:27;12.07;64.72
69208;SHT31;70114;47.690;8.898;2024-03-02T12:37:53;11.93;65.50
69208;SHT31;70114;47.690;8.898;2024-03-02T12:40:20;12.13;64.62
69208;SHT31;70114;47.690;8.898;2024-03-02T12:42:47;12.21;62.25
69208;SHT31;70114;47.690;8.898;2024-03-02T12:45:13;12.49;62.41
69208;SHT31;70114;47.690;8.898;2024-03-02T12:47:40;12.57;62.69
69208;SHT31;70114;47.690;8.898;2024-03-02T12:50:06;12.49;63.64
69208;SHT31;70114;47.690;8.898;2024-03-02T12:52:32;12.77;63.74
69208;SHT31;70114;47.690;8.898;2024-03-02T12:55:00;13.06;62.80
69208;SHT31;70114;47.690;8.898;2024-03-02T12:57:26;12.83;61.46
69208;SHT31;70114;47.690;8.898;2024-03-02T13:00:13;13.45;61.84
69208;SHT31;70114;47.690;8.898;2024-03-02T13:02:41;13.44;62.56
69208;SHT31;70114;47.690;8.898;2024-03-02T13:05:17;13.03;62.65
69208;SHT31;70114;47.690;8.898;2024-03-02T13:07:42;12.93;61.69
69208;SHT31;70114;47.690;8.898;2024-03-02T13:10:08;13.38;60.60
69208;SHT31;70114;47.690;8.898;2024-03-02T13:12:35;13.38;62.40
69208;SHT31;70114;47.690;8.898;2024-03-02T13:15:04;13.35;60.92
69208;SHT31;70114;47.690;8.898;2024-03-02T13:17:34;13.78;59.75
69208;SHT31;70114;47.690;8.898;2024-03-02T13:20:11;13.90;60.86
69208;SHT31;70114;47.690;8.898;2024-03-02T13:22:39;13.69;59.15
69208;SHT31;70114;47.690;8.898;2024-03-02T13:25:07;14.68;59.71
69208;SHT31;70114;47.690;8.898;2024-03-02T13:27:35;14.69;59.01
69208;SHT31;70114;47.690;8.898;2024-03-02T13:30:04;14.23;58.76
69208;SHT31;70114;47.690;8.898;2024-03-02T13:32:34;14.47;59.53
69208;SHT31;70114;47.690;8.898;2024-03-02T13:34:59;15.07;59.80
69208;SHT31;70114;47.690;8.898;2024-03-02T13:37:25;15.23;59.39
69208;SHT31;70114;47.690;8.898;2024-03-02T13:39:50;14.88;60.02
69208;SHT31;70114;47.690;8.898;2024-03-02T13:42:22;14.89;60.08
69208;SHT31;70114;47.690;8.898;2024-03-02T13:44:50;15.79;59.50
69208;SHT31;70114;47.690;8.898;2024-03-02T13:47:19;15.70;59.59
69208;SHT31;70114;47.690;8.898;2024-03-02T13:49:46;15.71;59.85
69208;SHT31;70114;47.690;8.898;2024-03-02T13:52:14;16.06;58.72
69208;SHT31;70114;47.690;8.898;2024-03-02T13:54:43;16.53;57.73
69208;SHT31;70114;47.690;8.898;2024-03-02T13:57:10;16.42;57.02
69208;SHT31;70114;47.690;8.898;2024-03-02T13:59:36;16.25;58.45
69208;SHT31;70114;47.690;8.898;2024-03-02T14:02:02;16.63;57.63
69208;SHT31;70114;47.690;8.898;2024-03-02T14:04:32;16.87;56.43
69208;SHT31;70114;47.690;8.898;2024-03-02T14:06:58;15.33;57.69
69208;SHT31;70114;47.690;8.898;2024-03-02T14:09:24;15.44;59.26
69208;SHT31;70114;47.690;8.898;2024-03-02T14:11:50;15.99;59.54
69208;SHT31;70114;47.690;8.898;2024-03-02T14:14:16;15.78;58.62
69208;SHT31;70114;47.690;8.898;2024-03-02T14:16:42;15.79;58.75
69208;SHT31;70114;47.690;8.898;2024-03-02T14:19:07;15.43;60.25
69208;SHT31;70114;47.690;8.898;2024-03-02T14:21:34;14.82;61.69
69208;SHT31;70114;47.690;8.898;2024-03-02T14:24:01;15.29;61.00
69208;SHT31;70114;47.690;8.898;2024-03-02T14:26:26;15.00;60.81
69208;SHT31;70114;47.690;8.898;2024-03-02T14:28:53;14.28;62.13
69208;SHT31;70114;47.690;8.898;2024-03-02T14:31:19;14.37;62.76
69208;SHT31;70114;47.690;8.898;2024-03-02T14:33:45;14.26;63.25
69208;SHT31;70114;47.690;8.898;2024-03-02T14:36:10;14.36;63.73
69208;SHT31;70114;47.690;8.898;2024-03-02T14:38:36;14.55;63.20
69208;SHT31;70114;47.690;8.898;2024-03-02T14:41:03;14.52;62.29
69208;SHT31;70114;47.690;8.898;2024-03-02T14:43:29;14.37;63.48
69208;SHT31;70114;47.690;8.898;2024-03-02T14:45:54;14.03;63.46
69208;SHT31;70114;47.690;8.898;2024-03-02T14:48:20;13.79;64.27
69208;SHT31;70114;47.690;8.898;2024-03-02T14:50:46;14.12;64.54
69208;SHT31;70114;47.690;8.898;2024-03-02T14:53:11;14.16;64.39
69208;SHT31;70114;47.690;8.898;2024-03-02T14:55:37;13.97;63.96
69208;SHT31;70114;47.690;8.898;2024-03-02T14:58:02;13.97;62.94
69208;SHT31;70114;47.690;8.898;2024-03-02T15:00:28;13.87;63.13
69208;SHT31;70114;47.690;8.898;2024-03-02T15:02:53;13.95;64.63
69208;SHT31;70114;47.690;8.898;2024-03-02T15:05:19;14.02;63.90
69208;SHT31;70114;47.690;8.898;2024-03-02T15:07:44;13.78;64.62
69208;SHT31;70114;47.690;8.898;2024-03-02T15:10:10;13.69;64.20
69208;SHT31;70114;47.690;8.898;2024-03-02T15:12:36;13.80;63.99
69208;SHT31;70114;47.690;8.898;2024-03-02T15:15:02;13.80;63.15
69208;SHT31;70114;47.690;8.898;2024-03-02T15:17:28;13.73;63.17
69208;SHT31;70114;47.690;8.898;2024-03-02T15:19:53;13.58;63.86
69208;SHT31;70114;47.690;8.898;2024-03-02T15:22:18;13.70;64.05
69208;SHT31;70114;47.690;8.898;2024-03-02T15:24:44;13.51;62.98
69208;SHT31;70114;47.690;8.898;2024-03-02T15:27:09;13.42;62.95
69208;SHT31;70114;47.690;8.898;2024-03-02T15:29:35;13.34;62.82
69208;SHT31;70114;47.690;8.898;2024-03-02T15:32:01;13.45;63.63
69208;SHT31;70114;47.690;8.898;2024-03-02T15:34:30;13.30;64.27
69208;SHT31;70114;47.690;8.898;2024-03-02T15:36:55;13.17;64.66
69208;SHT31;70114;47.690;8.898;2024-03-02T15:39:21;13.02;63.86
69208;SHT31;70114;47.690;8.898;2024-03-02T15:41:46;12.97;65.09
69208;SHT31;70114;47.690;8.898;2024-03-02T15:44:11;13.03;64.83
69208;SHT31;70114;47.690;8.898;2024-03-02T15:46:37;12.89;65.11
69208;SHT31;70114;47.690;8.898;2024-03-02T15:49:02;12.67;66.25